Time;durP1;ratioP1;P1;durP2;ratioP2;P2;SDS_P1;SDS_P2;PMS_P1;PMS_P2;Temp;Humidity;BMP_temperature;BMP_pressure;BME280_temperature;BME280_humidity;BME280_pressure;Samples;Min_cycle;Max_cycle;Signal;HPM_P1;HPM_P2
2021/03/27 00:01:41;;;;;;;7.77;4.93;;;10.20;99.90;;;;;;5096056;28;20410;-70
2021/03/27 00:04:19;;;;;;;27.67;6.50;;;10.00;99.90;;;;;;5096249;28;20387;-71
2021/03/27 00:06:52;;;;;;;15.13;5.00;;;10.00;99.90;;;;;;5096015;28;20823;-71
2021/03/27 00:09:41;;;;;;;11.50;5.28;;;9.80;99.90;;;;;;5095823;28;20426;-70
2021/03/27 00:12:24;;;;;;;7.60;4.00;;;9.60;31.70;;;;;;5095830;28;20687;-70
2021/03/27 00:14:57;;;;;;;4.10;3.67;;;9.60;26.40;;;;;;5095887;28;20402;-70
2021/03/27 00:17:44;;;;;;;5.80;3.40;;;9.50;57.30;;;;;;5096088;28;20417;-70
2021/03/27 00:20:31;;;;;;;5.85;3.47;;;9.30;68.10;;;;;;5096017;28;20378;-71
2021/03/27 00:23:16;;;;;;;4.20;2.92;;;9.30;99.90;;;;;;5095604;28;20656;-71
2021/03/27 00:25:54;;;;;;;3.83;2.70;;;9.20;99.90;;;;;;5096014;28;20243;-71
2021/03/27 00:28:50;;;;;;;5.13;3.25;;;9.30;99.90;;;;;;5095891;28;20155;-71
2021/03/27 00:31:31;;;;;;;5.05;2.55;;;9.30;99.90;;;;;;5094019;28;20184;-70
2021/03/27 00:34:14;;;;;;;3.25;2.60;;;9.10;99.90;;;;;;5095665;28;20632;-70
2021/03/27 00:36:44;;;;;;;6.50;2.35;;;8.80;99.90;;;;;;5095728;28;20163;-70
2021/03/27 00:39:50;;;;;;;2.38;1.75;;;8.60;99.90;;;;;;5095441;28;20174;-70
2021/03/27 00:42:21;;;;;;;2.70;1.60;;;8.60;99.90;;;;;;5094601;28;20201;-70
2021/03/27 00:44:59;;;;;;;2.63;1.98;;;8.60;99.90;;;;;;5095622;28;20525;-70
2021/03/27 00:47:29;;;;;;;4.20;1.20;;;8.70;99.90;;;;;;5095561;28;20213;-70
2021/03/27 00:50:15;;;;;;;2.90;1.95;;;8.40;99.90;;;;;;5095401;28;20148;-70
2021/03/27 00:52:58;;;;;;;2.40;1.80;;;8.20;99.90;;;;;;5095490;28;20282;-70
2021/03/27 00:55:36;;;;;;;2.30;1.73;;;8.10;99.90;;;;;;5095526;28;20632;-70
2021/03/27 00:58:11;;;;;;;1.80;1.33;;;8.10;99.90;;;;;;5095583;28;20675;-71
2021/03/27 01:00:42;;;;;;;1.17;1.08;;;8.10;99.90;;;;;;5094916;28;20156;-70
2021/03/27 01:03:12;;;;;;;1.83;0.70;;;7.70;99.90;;;;;;5094499;28;20191;-70
2021/03/27 01:05:39;;;;;;;1.27;1.17;;;7.60;99.90;;;;;;5094972;28;20168;-70
2021/03/27 01:08:08;;;;;;;1.55;0.93;;;7.50;99.90;;;;;;5095311;28;20232;-70
2021/03/27 01:10:42;;;;;;;4.53;1.70;;;7.60;99.90;;;;;;5094700;28;20182;-70
2021/03/27 01:13:16;;;;;;;4.57;3.33;;;7.60;99.90;;;;;;5094721;28;20198;-70
2021/03/27 01:15:50;;;;;;;4.78;3.50;;;7.50;99.90;;;;;;5094914;28;20164;-70
2021/03/27 01:18:21;;;;;;;3.75;3.45;;;7.40;99.90;;;;;;5094663;28;20151;-70
2021/03/27 01:20:51;;;;;;;4.70;3.70;;;7.40;99.90;;;;;;5094005;28;20486;-70
2021/03/27 01:23:18;;;;;;;2.33;1.80;;;7.40;99.90;;;;;;5094686;28;20199;-70
2021/03/27 01:25:44;;;;;;;3.10;2.40;;;7.30;99.90;;;;;;5094822;28;20171;-70
2021/03/27 01:28:15;;;;;;;1.67;1.50;;;7.20;99.90;;;;;;5094701;28;20171;-70
2021/03/27 01:31:04;;;;;;;2.95;2.60;;;7.20;99.90;;;;;;5094685;28;20168;-71
2021/03/27 01:33:44;;;;;;;4.20;1.70;;;7.10;99.90;;;;;;5083311;28;20207;-69
2021/03/27 01:36:15;;;;;;;1.63;1.52;;;7.10;99.90;;;;;;5093086;28;20532;-70
2021/03/27 01:39:02;;;;;;;3.28;1.80;;;6.90;99.90;;;;;;5094486;28;20164;-70
2021/03/27 01:41:31;;;;;;;1.70;1.48;;;6.90;99.90;;;;;;5094110;28;20317;-71
2021/03/27 01:44:19;;;;;;;3.58;2.75;;;6.90;99.90;;;;;;5094067;28;20215;-70
2021/03/27 01:47:20;;;;;;;5.85;2.50;;;6.90;99.90;;;;;;5094715;28;20573;-70
2021/03/27 01:49:55;;;;;;;5.07;2.72;;;6.80;1.00;;;;;;5094148;28;20159;-70
2021/03/27 01:52:40;;;;;;;5.78;4.25;;;6.80;99.90;;;;;;5094039;28;20198;-70
2021/03/27 01:55:31;;;;;;;5.35;3.80;;;7.00;99.90;;;;;;5094212;28;20167;-70
2021/03/27 01:58:22;;;;;;;4.60;2.22;;;6.70;99.90;;;;;;5094026;28;20174;-70
2021/03/27 02:00:55;;;;;;;4.60;2.33;;;6.60;99.90;;;;;;5094031;28;20533;-70
2021/03/27 02:03:39;;;;;;;3.33;2.08;;;6.70;99.90;;;;;;5093752;28;20233;-70
2021/03/27 02:06:16;;;;;;;4.53;1.75;;;6.80;99.90;;;;;;5093816;28;20202;-70
2021/03/27 02:08:50;;;;;;;3.28;1.40;;;6.90;99.90;;;;;;5093583;28;20261;-70
2021/03/27 02:11:25;;;;;;;2.63;1.55;;;6.90;99.90;;;;;;5093540;28;20163;-72
2021/03/27 02:14:05;;;;;;;3.15;1.50;;;6.70;99.90;;;;;;5092998;28;20191;-70
2021/03/27 02:16:39;;;;;;;1.75;1.30;;;6.80;1.00;;;;;;5093730;28;20170;-70
2021/03/27 02:19:26;;;;;;;6.72;1.42;;;6.70;1.00;;;;;;5093840;28;20151;-70
2021/03/27 02:22:31;;;;;;;3.22;1.50;;;7.00;1.00;;;;;;5093378;28;20220;-70
2021/03/27 02:25:21;;;;;;;1.60;1.40;;;7.10;99.90;;;;;;5093597;28;20239;-70
2021/03/27 02:28:08;;;;;;;4.13;1.95;;;7.00;99.90;;;;;;5093637;28;20258;-70
2021/03/27 02:30:42;;;;;;;5.72;1.52;;;6.80;99.90;;;;;;5093439;28;20151;-70
2021/03/27 02:33:34;;;;;;;2.47;1.55;;;6.70;99.90;;;;;;5093029;28;20667;-69
2021/03/27 02:36:14;;;;;;;4.35;1.50;;;6.50;99.90;;;;;;5093170;28;20183;-70
2021/03/27 02:38:54;;;;;;;2.63;1.20;;;6.50;99.90;;;;;;5093091;28;20616;-70
2021/03/27 02:41:37;;;;;;;3.75;1.38;;;6.60;99.90;;;;;;5093285;28;20208;-71
2021/03/27 02:44:41;;;;;;;2.95;1.15;;;6.60;99.90;;;;;;5093242;28;20617;-71
2021/03/27 02:47:37;;;;;;;2.45;1.08;;;6.70;99.90;;;;;;5010923;28;20185;-71
2021/03/27 02:50:18;;;;;;;3.95;0.82;;;6.60;99.90;;;;;;5092925;28;20502;-71
2021/03/27 02:53:34;;;;;;;3.75;1.23;;;6.70;99.90;;;;;;5091430;28;20206;-71
2021/03/27 02:56:20;;;;;;;4.53;1.67;;;6.70;99.90;;;;;;5048324;28;20171;-71
2021/03/27 02:59:11;;;;;;;4.43;2.20;;;6.60;99.90;;;;;;5092847;28;20215;-71
2021/03/27 03:01:52;;;;;;;3.40;1.67;;;6.70;99.90;;;;;;5092819;28;20167;-71
2021/03/27 03:04:35;;;;;;;7.82;1.25;;;6.60;99.90;;;;;;5093157;28;20617;-71
2021/03/27 03:07:26;;;;;;;7.30;2.15;;;6.60;99.90;;;;;;5092944;28;20160;-71
2021/03/27 03:09:58;;;;;;;3.40;1.98;;;6.70;99.90;;;;;;5093416;28;20209;-71
2021/03/27 03:12:34;;;;;;;2.35;1.77;;;6.60;99.90;;;;;;5092908;28;20289;-71
2021/03/27 03:15:29;;;;;;;2.78;2.15;;;6.60;99.90;;;;;;5093111;28;20151;-70
2021/03/27 03:18:06;;;;;;;2.20;1.73;;;6.60;99.90;;;;;;5092985;28;20159;-71
2021/03/27 03:20:42;;;;;;;3.20;1.80;;;6.60;99.90;;;;;;5092744;28;20152;-71
2021/03/27 03:23:35;;;;;;;2.20;1.40;;;6.60;99.90;;;;;;5092750;28;20199;-71
2021/03/27 03:26:19;;;;;;;4.93;1.80;;;6.60;99.90;;;;;;5086700;28;20186;-71
2021/03/27 03:29:15;;;;;;;2.72;2.05;;;6.50;99.90;;;;;;5096752;28;20191;-71
2021/03/27 03:32:06;;;;;;;4.25;1.50;;;6.60;99.90;;;;;;5096641;28;20167;-71
2021/03/27 03:34:54;;;;;;;3.67;2.50;;;6.60;99.90;;;;;;5096863;28;20191;-71
2021/03/27 03:37:29;;;;;;;4.40;1.40;;;6.50;99.90;;;;;;5096917;28;20156;-70
2021/03/27 03:40:22;;;;;;;3.47;1.88;;;6.40;99.90;;;;;;5096615;28;20179;-70
2021/03/27 03:43:09;;;;;;;3.97;1.70;;;6.60;99.90;;;;;;5096471;28;20231;-71
2021/03/27 03:45:49;;;;;;;4.55;2.10;;;6.50;95.30;;;;;;5096868;28;20289;-71
2021/03/27 03:48:42;;;;;;;4.22;2.42;;;6.50;99.90;;;;;;5097060;28;20167;-71
2021/03/27 03:51:22;;;;;;;5.53;2.20;;;6.60;63.70;;;;;;5096436;28;20160;-71
2021/03/27 03:54:14;;;;;;;4.10;1.65;;;6.60;99.90;;;;;;5096184;28;20395;-71
2021/03/27 03:56:47;;;;;;;8.05;2.40;;;6.70;74.50;;;;;;5096359;28;20148;-71
2021/03/27 03:59:18;;;;;;;4.95;2.25;;;6.70;36.20;;;;;;5096462;28;20160;-71
2021/03/27 04:01:49;;;;;;;5.07;1.75;;;6.70;57.50;;;;;;5096328;28;20183;-71
2021/03/27 04:04:23;;;;;;;3.58;1.90;;;6.70;53.70;;;;;;5096236;28;20183;-71
2021/03/27 04:07:01;;;;;;;4.13;1.73;;;6.60;59.60;;;;;;5096232;28;20561;-71
2021/03/27 04:09:50;;;;;;;1.80;1.15;;;6.60;2.00;;;;;;5095802;28;20205;-71
2021/03/27 04:12:24;;;;;;;2.47;1.95;;;6.60;15.00;;;;;;5095789;28;20258;-71
2021/03/27 04:15:15;;;;;;;7.25;1.70;;;6.60;1.00;;;;;;5096168;28;20230;-70
2021/03/27 04:17:49;;;;;;;4.00;1.80;;;6.70;1.00;;;;;;5095786;28;20147;-71
2021/03/27 04:20:46;;;;;;;10.05;2.53;;;6.70;1.00;;;;;;5095722;28;20179;-71
2021/03/27 04:23:38;;;;;;;8.85;2.25;;;6.60;11.90;;;;;;5095842;28;20750;-71
2021/03/27 04:26:19;;;;;;;6.47;2.10;;;6.70;1.00;;;;;;5095729;28;20156;-71
2021/03/27 04:29:09;;;;;;;8.82;2.08;;;6.70;1.00;;;;;;5095686;28;20166;-71
2021/03/27 04:31:59;;;;;;;8.73;2.72;;;6.70;1.00;;;;;;5095562;28;20152;-71
2021/03/27 04:34:46;;;;;;;11.27;1.85;;;6.70;25.40;;;;;;5095550;28;20179;-71
2021/03/27 04:37:16;;;;;;;6.25;2.50;;;6.70;1.00;;;;;;5095192;28;20194;-71
2021/03/27 04:39:57;;;;;;;7.10;2.13;;;6.70;1.00;;;;;;5093838;28;20175;-71
2021/03/27 04:42:53;;;;;;;2.75;1.45;;;6.70;1.00;;;;;;5095064;28;20766;-71
2021/03/27 04:45:25;;;;;;;4.97;1.65;;;6.60;1.00;;;;;;5088667;28;20207;-71
2021/03/27 04:48:19;;;;;;;2.80;1.67;;;6.70;1.00;;;;;;5095422;28;20148;-71
2021/03/27 04:51:16;;;;;;;3.88;1.88;;;6.70;1.00;;;;;;5094992;28;20194;-71
2021/03/27 04:54:20;;;;;;;3.92;1.15;;;6.70;1.00;;;;;;5087220;28;20211;-71
2021/03/27 04:57:14;;;;;;;11.85;2.83;;;6.50;1.00;;;;;;5095016;28;20597;-71
2021/03/27 04:59:52;;;;;;;4.32;1.65;;;6.60;1.00;;;;;;5095140;28;20238;-71
2021/03/27 05:02:37;;;;;;;9.00;1.80;;;6.60;1.00;;;;;;5094888;28;20191;-71
2021/03/27 05:05:06;;;;;;;5.45;1.50;;;6.50;1.00;;;;;;5095081;28;20524;-71
2021/03/27 05:07:43;;;;;;;11.43;2.13;;;6.40;1.00;;;;;;5095105;28;20621;-71
2021/03/27 05:10:26;;;;;;;8.60;1.60;;;6.40;1.00;;;;;;5094891;28;20152;-71
2021/03/27 05:13:16;;;;;;;7.07;0.77;;;6.30;1.00;;;;;;5094693;28;20195;-71
2021/03/27 05:16:00;;;;;;;7.80;2.88;;;6.10;1.00;;;;;;5094893;28;20160;-71
2021/03/27 05:18:41;;;;;;;2.95;1.10;;;6.20;1.00;;;;;;5094751;28;20152;-71
2021/03/27 05:21:37;;;;;;;8.05;1.58;;;6.20;1.00;;;;;;5094564;28;20179;-71
2021/03/27 05:24:15;;;;;;;7.05;3.33;;;6.20;1.00;;;;;;5094308;28;20168;-71
2021/03/27 05:26:40;;;;;;;7.80;2.97;;;6.30;1.00;;;;;;5094750;28;20608;-71
2021/03/27 05:29:37;;;;;;;4.40;2.10;;;6.50;1.00;;;;;;5094705;28;20250;-70
2021/03/27 05:32:28;;;;;;;7.63;1.98;;;6.30;1.00;;;;;;5094599;28;20577;-71
2021/03/27 05:35:04;;;;;;;7.90;2.08;;;6.50;1.00;;;;;;5056319;28;20282;-71
2021/03/27 05:37:44;;;;;;;12.68;2.08;;;6.40;1.00;;;;;;5094107;28;20151;-71
2021/03/27 05:40:24;;;;;;;5.97;2.67;;;6.50;1.00;;;;;;5094161;28;20151;-71
2021/03/27 05:43:18;;;;;;;6.00;2.00;;;6.60;1.00;;;;;;5094199;28;20191;-71
2021/03/27 05:46:14;;;;;;;9.27;2.20;;;6.60;1.00;;;;;;5094238;28;20168;-71
2021/03/27 05:49:36;;;;;;;10.10;2.70;;;6.60;1.00;;;;;;5093553;28;20160;-71
2021/03/27 05:52:20;;;;;;;13.15;4.07;;;6.50;1.00;;;;;;5094112;28;20240;-71
2021/03/27 05:54:53;;;;;;;3.47;1.98;;;6.50;1.00;;;;;;5093877;28;20640;-70
2021/03/27 05:57:52;;;;;;;5.40;2.42;;;6.50;1.00;;;;;;5093816;28;20183;-71
2021/03/27 06:00:33;;;;;;;12.90;1.83;;;6.80;1.00;;;;;;5094210;28;20238;-71
2021/03/27 06:03:32;;;;;;;8.05;2.88;;;6.70;1.00;;;;;;5094102;28;20186;-71
2021/03/27 06:06:35;;;;;;;9.52;2.10;;;6.60;1.00;;;;;;5094035;28;20174;-71
2021/03/27 06:09:28;;;;;;;6.28;2.67;;;6.70;1.00;;;;;;5093716;28;20528;-71
2021/03/27 06:11:56;;;;;;;5.20;1.27;;;6.80;1.00;;;;;;5094046;28;20279;-72
2021/03/27 06:15:00;;;;;;;10.20;2.15;;;6.70;1.00;;;;;;5094538;28;20210;-71
2021/03/27 06:17:44;;;;;;;13.02;1.77;;;6.70;1.00;;;;;;5012416;28;20178;-71
2021/03/27 06:20:13;;;;;;;7.88;2.15;;;6.80;1.00;;;;;;5012252;28;20162;-71
2021/03/27 06:23:20;;;;;;;5.55;2.58;;;6.80;1.00;;;;;;5052902;28;20684;-71
2021/03/27 06:25:59;;;;;;;14.55;2.70;;;7.10;1.00;;;;;;5093342;28;20170;-71
2021/03/27 06:28:55;;;;;;;7.30;2.42;;;7.00;1.00;;;;;;5093699;28;20151;-70
2021/03/27 06:31:46;;;;;;;6.70;2.10;;;7.00;1.00;;;;;;5093277;28;20250;-71
2021/03/27 06:34:11;;;;;;;7.00;2.53;;;7.10;1.00;;;;;;5093481;28;20213;-71
2021/03/27 06:36:53;;;;;;;7.57;2.27;;;7.00;1.00;;;;;;5093138;28;20163;-71
2021/03/27 06:39:34;;;;;;;7.95;2.25;;;7.10;1.00;;;;;;5093335;28;20227;-71
2021/03/27 06:42:11;;;;;;;8.98;1.98;;;7.10;1.00;;;;;;5093206;28;20675;-71
2021/03/27 06:44:37;;;;;;;8.40;2.50;;;7.10;1.00;;;;;;5093264;28;20163;-71
2021/03/27 06:47:28;;;;;;;12.40;2.20;;;7.10;1.00;;;;;;5092898;28;20294;-71
2021/03/27 06:50:02;;;;;;;12.57;2.47;;;7.10;1.00;;;;;;5093007;28;20571;-71
2021/03/27 06:52:46;;;;;;;11.02;2.00;;;7.10;1.00;;;;;;5092619;28;20202;-71
2021/03/27 06:55:40;;;;;;;9.73;2.67;;;7.10;1.00;;;;;;5092856;28;20183;-71
2021/03/27 06:58:27;;;;;;;4.72;1.90;;;7.20;1.00;;;;;;5092774;28;20660;-71
2021/03/27 07:01:40;;;;;;;6.65;2.28;;;7.00;1.00;;;;;;5093066;28;20205;-71
2021/03/27 07:04:24;;;;;;;7.85;1.52;;;6.80;1.00;;;;;;5085754;28;20605;-71
2021/03/27 07:07:41;;;;;;;3.03;1.00;;;6.50;1.00;;;;;;5092758;28;20620;-71
2021/03/27 07:10:43;;;;;;;3.72;0.50;;;6.20;25.60;;;;;;5047882;28;20195;-70
2021/03/27 07:13:17;;;;;;;2.88;0.80;;;5.70;99.90;;;;;;5092548;28;20217;-70
2021/03/27 07:15:49;;;;;;;7.30;1.00;;;5.70;99.90;;;;;;5092634;28;20163;-70
2021/03/27 07:18:46;;;;;;;2.17;1.00;;;5.60;99.90;;;;;;5092626;28;20167;-71
2021/03/27 07:21:44;;;;;;;4.45;1.25;;;5.40;99.90;;;;;;5092598;28;20152;-71
2021/03/27 07:24:26;;;;;;;6.05;1.27;;;5.50;99.90;;;;;;5092609;28;20597;-71
2021/03/27 07:27:26;;;;;;;6.32;1.20;;;5.30;99.90;;;;;;5092836;28;20215;-71
2021/03/27 07:30:16;;;;;;;2.50;1.10;;;5.20;99.90;;;;;;5092636;28;20156;-71
2021/03/27 07:32:57;;;;;;;2.65;0.70;;;5.30;99.90;;;;;;5092412;28;20195;-71
2021/03/27 07:35:25;;;;;;;6.55;1.20;;;5.40;1.00;;;;;;5092563;28;20159;-71
2021/03/27 07:38:25;;;;;;;6.18;1.85;;;5.40;1.00;;;;;;5092875;28;20230;-71
2021/03/27 07:41:15;;;;;;;1.98;0.80;;;5.20;99.90;;;;;;5091545;28;20196;-71
2021/03/27 07:44:19;;;;;;;1.63;0.50;;;5.10;99.90;;;;;;5092645;28;20188;-71
2021/03/27 07:47:12;;;;;;;1.20;0.70;;;5.10;99.90;;;;;;5074846;28;20183;-71
2021/03/27 07:49:57;;;;;;;2.10;0.60;;;5.20;99.90;;;;;;5092458;28;20167;-71
2021/03/27 07:52:32;;;;;;;2.33;1.15;;;5.30;99.90;;;;;;5092077;28;20697;-71
2021/03/27 07:55:52;;;;;;;2.97;1.35;;;5.50;99.90;;;;;;5092328;28;20155;-70
2021/03/27 07:58:39;;;;;;;2.00;1.08;;;5.50;99.90;;;;;;5092486;28;20640;-70
2021/03/27 08:01:19;;;;;;;1.67;1.13;;;5.70;99.90;;;;;;5092627;28;20160;-71
2021/03/27 08:04:13;;;;;;;4.05;1.70;;;5.60;11.40;;;;;;5092278;28;20324;-71
2021/03/27 08:07:08;;;;;;;4.22;1.17;;;5.70;10.30;;;;;;5091976;28;20174;-71
2021/03/27 08:10:11;;;;;;;2.25;0.93;;;5.80;1.00;;;;;;5054073;28;20195;-71
2021/03/27 08:13:17;;;;;;;1.88;1.20;;;5.50;1.00;;;;;;5095646;28;20244;-71
2021/03/27 08:16:41;;;;;;;2.50;0.90;;;6.00;1.00;;;;;;5073496;28;20186;-70
2021/03/27 08:19:22;;;;;;;2.42;0.73;;;5.90;1.00;;;;;;5013573;28;20278;-71
2021/03/27 08:22:22;;;;;;;1.70;1.02;;;6.00;1.00;;;;;;5013596;28;20182;-70
2021/03/27 08:24:59;;;;;;;5.95;1.80;;;6.00;1.00;;;;;;5080433;28;20274;-71
2021/03/27 08:28:08;;;;;;;3.03;0.73;;;6.20;1.00;;;;;;5095838;28;20217;-71
2021/03/27 08:31:01;;;;;;;5.40;1.27;;;6.50;1.00;;;;;;5095902;28;20155;-71
2021/03/27 08:33:41;;;;;;;5.72;1.38;;;6.80;1.00;;;;;;5095681;28;20259;-71
2021/03/27 08:36:49;;;;;;;2.30;0.93;;;6.50;1.00;;;;;;5095469;28;20285;-71
2021/03/27 08:39:42;;;;;;;2.38;1.38;;;6.30;1.00;;;;;;5091152;28;20190;-71
2021/03/27 08:42:26;;;;;;;3.25;1.27;;;6.60;1.00;;;;;;5095607;28;20620;-71
2021/03/27 08:45:13;;;;;;;2.83;1.40;;;6.80;1.00;;;;;;5095152;28;20175;-70
2021/03/27 08:47:57;;;;;;;4.25;1.80;;;7.00;1.00;;;;;;5094990;28;20510;-70
2021/03/27 08:50:59;;;;;;;5.78;1.48;;;7.00;1.00;;;;;;5095277;28;20159;-70
2021/03/27 08:53:58;;;;;;;4.53;1.30;;;7.30;1.00;;;;;;5095110;28;20702;-71
2021/03/27 08:56:46;;;;;;;3.83;1.42;;;7.40;1.00;;;;;;5095060;28;20183;-71
2021/03/27 08:59:37;;;;;;;8.07;1.33;;;7.40;1.00;;;;;;5094989;28;20156;-70
2021/03/27 09:02:30;;;;;;;5.80;1.27;;;7.40;1.00;;;;;;5094820;28;20184;-71
2021/03/27 09:04:58;;;;;;;3.65;1.83;;;7.70;1.00;;;;;;5094800;28;20651;-70
2021/03/27 09:07:30;;;;;;;9.70;2.47;;;7.50;1.00;;;;;;5094891;28;20242;-70
2021/03/27 09:10:31;;;;;;;5.40;2.20;;;7.50;1.00;;;;;;5094517;28;20243;-70
2021/03/27 09:13:03;;;;;;;5.57;2.00;;;7.50;1.00;;;;;;5094483;28;20565;-70
2021/03/27 09:15:42;;;;;;;11.77;1.80;;;7.90;1.00;;;;;;5094637;28;20557;-71
2021/03/27 09:18:08;;;;;;;4.22;1.70;;;8.10;1.00;;;;;;5094825;28;20172;-71
2021/03/27 09:20:54;;;;;;;6.30;1.87;;;7.80;1.00;;;;;;5094342;28;20172;-71
2021/03/27 09:23:50;;;;;;;10.77;2.47;;;7.90;1.00;;;;;;5093273;28;20555;-71
2021/03/27 09:26:48;;;;;;;8.43;2.22;;;8.20;1.00;;;;;;5095336;28;20615;-71
2021/03/27 09:29:31;;;;;;;7.85;2.08;;;7.80;1.00;;;;;;5089058;28;20620;-71
2021/03/27 09:32:18;;;;;;;6.30;1.50;;;7.90;1.00;;;;;;5094360;28;20556;-71
2021/03/27 09:35:10;;;;;;;9.45;3.00;;;7.80;1.00;;;;;;5094324;28;20216;-70
2021/03/27 09:38:01;;;;;;;8.45;1.80;;;8.10;1.00;;;;;;5094549;28;20242;-70
2021/03/27 09:40:50;;;;;;;14.75;2.80;;;8.30;1.00;;;;;;5080049;28;20552;-71
2021/03/27 09:43:53;;;;;;;6.65;1.88;;;8.60;1.00;;;;;;5093306;28;20195;-70
2021/03/27 09:46:52;;;;;;;9.15;2.03;;;8.60;1.00;;;;;;5094286;28;20192;-70
2021/03/27 09:49:30;;;;;;;10.57;1.98;;;8.80;1.00;;;;;;5093834;28;20160;-70
2021/03/27 09:52:20;;;;;;;8.05;1.48;;;9.20;1.00;;;;;;5093670;28;20147;-70
2021/03/27 09:55:00;;;;;;;7.90;1.30;;;8.70;1.00;;;;;;5093871;28;20652;-70
2021/03/27 09:57:30;;;;;;;14.18;2.75;;;8.60;1.00;;;;;;5093663;28;20183;-71
2021/03/27 10:00:23;;;;;;;6.85;2.10;;;8.40;1.00;;;;;;5093522;28;20167;-71
2021/03/27 10:03:03;;;;;;;13.77;2.95;;;8.70;1.00;;;;;;5093601;28;20199;-71
2021/03/27 10:06:16;;;;;;;10.93;2.33;;;9.10;1.00;;;;;;5093709;28;20189;-70
2021/03/27 10:08:53;;;;;;;8.88;1.92;;;9.50;1.00;;;;;;5085909;28;20250;-71
2021/03/27 10:11:26;;;;;;;5.28;2.03;;;9.70;99.90;;;;;;5093496;28;20272;-70
2021/03/27 10:14:17;;;;;;;7.60;1.50;;;9.00;99.90;;;;;;5093181;28;20267;-70
2021/03/27 10:16:56;;;;;;;6.63;1.98;;;9.00;99.90;;;;;;5093254;28;20162;-70
2021/03/27 10:19:29;;;;;;;6.18;1.35;;;9.00;99.90;;;;;;5093306;28;20151;-70
2021/03/27 10:22:07;;;;;;;6.13;2.22;;;8.60;99.90;;;;;;5093368;28;20159;-70
2021/03/27 10:24:49;;;;;;;9.02;1.92;;;8.80;99.90;;;;;;5093283;28;20155;-71
2021/03/27 10:27:36;;;;;;;4.15;1.55;;;8.80;99.90;;;;;;5093863;28;20196;-71
2021/03/27 10:30:41;;;;;;;5.13;1.85;;;8.60;99.90;;;;;;5093334;28;20577;-70
2021/03/27 10:33:14;;;;;;;5.75;1.50;;;8.60;99.90;;;;;;5093009;28;20207;-71
2021/03/27 10:35:50;;;;;;;11.77;2.42;;;8.80;99.90;;;;;;5093298;28;20155;-71
2021/03/27 10:38:16;;;;;;;8.75;1.95;;;9.00;99.90;;;;;;5093184;28;20165;-72
2021/03/27 10:40:48;;;;;;;12.80;2.80;;;8.80;99.90;;;;;;5093679;28;20174;-71
2021/03/27 10:43:32;;;;;;;6.10;1.20;;;9.20;99.90;;;;;;5093163;28;20280;-71
2021/03/27 10:46:14;;;;;;;7.15;1.35;;;9.00;99.90;;;;;;5093132;28;20179;-71
2021/03/27 10:49:03;;;;;;;4.20;1.25;;;8.90;99.90;;;;;;5093203;28;20166;-71
2021/03/27 10:51:38;;;;;;;3.63;1.33;;;9.30;99.90;;;;;;5091543;28;20646;-71
2021/03/27 10:54:39;;;;;;;4.75;1.63;;;9.90;99.90;;;;;;5093535;28;20591;-71
2021/03/27 10:57:28;;;;;;;4.78;1.25;;;10.20;99.90;;;;;;5093692;28;20159;-71
2021/03/27 11:00:30;;;;;;;6.85;1.95;;;10.80;99.90;;;;;;5093502;28;20167;-70
2021/03/27 11:03:14;;;;;;;7.80;2.30;;;10.30;99.90;;;;;;5093246;28;20200;-71
2021/03/27 11:06:04;;;;;;;10.27;1.77;;;10.90;99.90;;;;;;5092821;28;20167;-70
2021/03/27 11:09:12;;;;;;;5.40;2.80;;;10.80;99.90;;;;;;5092814;28;20578;-70
2021/03/27 11:11:55;;;;;;;7.30;1.90;;;10.60;99.90;;;;;;5092733;28;20382;-70
2021/03/27 11:14:58;;;;;;;4.67;1.30;;;10.20;99.90;;;;;;5092708;28;20442;-71
2021/03/27 11:18:01;;;;;;;10.88;1.92;;;9.70;99.90;;;;;;5093180;28;20404;-71
2021/03/27 11:20:49;;;;;;;7.20;2.17;;;10.00;99.90;;;;;;5092639;28;20221;-71
2021/03/27 11:23:57;;;;;;;2.17;0.98;;;10.20;99.90;;;;;;5092702;28;20198;-71
2021/03/27 11:26:42;;;;;;;9.18;3.25;;;10.00;99.90;;;;;;5092938;28;20247;-71
2021/03/27 11:29:27;;;;;;;8.70;1.33;;;10.40;99.90;;;;;;5092642;28;20162;-71
2021/03/27 11:32:05;;;;;;;3.58;1.42;;;9.90;99.90;;;;;;5092753;28;20155;-71
2021/03/27 11:34:36;;;;;;;3.25;1.10;;;9.90;99.90;;;;;;5092520;28;20190;-71
2021/03/27 11:37:09;;;;;;;3.13;1.17;;;10.40;99.90;;;;;;5092488;28;20171;-71
2021/03/27 11:39:37;;;;;;;5.67;1.23;;;10.90;99.90;;;;;;5092296;28;20160;-71
2021/03/27 11:42:10;;;;;;;5.22;1.85;;;10.80;99.90;;;;;;5092234;28;20512;-71
2021/03/27 11:44:57;;;;;;;9.15;1.80;;;10.70;99.90;;;;;;5092079;28;20160;-70
2021/03/27 11:47:54;;;;;;;8.55;1.77;;;10.60;99.90;;;;;;5095831;28;20152;-71
2021/03/27 11:50:43;;;;;;;6.70;1.50;;;10.80;99.90;;;;;;5096505;28;20528;-70
2021/03/27 11:53:31;;;;;;;5.17;1.53;;;10.50;99.90;;;;;;5096127;28;20880;-71
2021/03/27 11:56:34;;;;;;;6.10;1.50;;;10.20;99.90;;;;;;5096503;28;20741;-70
2021/03/27 12:02:13;;;;;;;6.63;1.40;;;11.20;99.90;;;;;;5096399;28;20372;-71
2021/03/27 12:05:03;;;;;;;5.60;1.67;;;11.00;99.90;;;;;;5096398;28;20390;-71
2021/03/27 12:07:56;;;;;;;9.38;2.15;;;10.70;99.90;;;;;;5096035;28;20393;-70
2021/03/27 12:10:35;;;;;;;4.17;1.37;;;10.80;99.90;;;;;;5096238;28;20533;-71
2021/03/27 12:13:08;;;;;;;4.13;1.63;;;11.00;99.90;;;;;;5095744;28;20562;-71
2021/03/27 12:15:41;;;;;;;4.80;1.77;;;11.10;99.90;;;;;;5095736;28;20392;-71
2021/03/27 12:18:28;;;;;;;5.00;1.80;;;11.40;99.90;;;;;;5096146;28;20383;-71
2021/03/27 12:21:09;;;;;;;3.70;1.50;;;11.40;99.90;;;;;;5095918;28;20385;-71
2021/03/27 12:24:09;;;;;;;5.03;1.10;;;11.60;99.90;;;;;;5095372;28;20417;-71
2021/03/27 12:27:00;;;;;;;7.03;1.70;;;10.70;99.90;;;;;;5050454;28;20555;-71
2021/03/27 12:29:40;;;;;;;3.80;1.20;;;11.30;99.90;;;;;;5096067;28;20382;-71
2021/03/27 12:32:39;;;;;;;5.07;1.80;;;11.20;99.90;;;;;;5095393;28;20437;-71
2021/03/27 12:35:19;;;;;;;5.33;1.87;;;10.90;99.90;;;;;;5095261;28;20392;-71
2021/03/27 12:38:06;;;;;;;8.37;2.10;;;11.20;99.90;;;;;;5095517;28;20374;-71
2021/03/27 12:40:55;;;;;;;9.53;2.23;;;12.00;99.90;;;;;;5095620;28;20392;-71
2021/03/27 12:43:25;;;;;;;3.80;1.60;;;12.30;99.90;;;;;;5095362;28;20408;-70
2021/03/27 12:46:19;;;;;;;3.97;2.23;;;12.30;99.90;;;;;;5095579;28;20757;-70
2021/03/27 12:49:10;;;;;;;4.97;2.07;;;12.20;99.90;;;;;;5095471;28;20370;-71
2021/03/27 12:52:01;;;;;;;5.93;2.37;;;12.10;99.90;;;;;;5095073;28;20405;-71
2021/03/27 12:54:42;;;;;;;5.37;1.93;;;11.70;99.90;;;;;;5095316;28;20445;-71
2021/03/27 12:57:28;;;;;;;7.60;4.20;;;12.00;99.90;;;;;;5094744;28;20465;-72
2021/03/27 13:00:15;;;;;;;3.13;1.63;;;12.60;99.90;;;;;;5095173;28;20906;-71
2021/03/27 13:03:06;;;;;;;3.30;1.63;;;12.60;99.90;;;;;;5095101;28;20737;-71
2021/03/27 13:05:40;;;;;;;4.20;1.40;;;12.60;99.90;;;;;;5095395;28;20474;-72
2021/03/27 13:08:06;;;;;;;3.10;1.50;;;12.00;99.90;;;;;;5094792;28;20421;-71
2021/03/27 13:10:47;;;;;;;4.80;1.67;;;11.10;99.90;;;;;;5095067;28;20390;-71
2021/03/27 13:13:50;;;;;;;10.70;2.33;;;11.00;99.90;;;;;;5094635;28;20226;-71
2021/03/27 13:16:24;;;;;;;3.63;1.50;;;11.40;99.90;;;;;;5095093;28;20398;-71
2021/03/27 13:19:11;;;;;;;5.10;1.47;;;11.20;99.90;;;;;;5094888;28;20410;-71
2021/03/27 13:22:01;;;;;;;2.80;1.73;;;11.10;99.90;;;;;;5094927;28;20378;-72
2021/03/27 13:24:32;;;;;;;2.73;1.40;;;11.30;99.90;;;;;;5094548;28;20895;-71
2021/03/27 13:27:13;;;;;;;4.23;1.70;;;10.80;99.90;;;;;;5094655;28;20526;-72
2021/03/27 13:29:42;;;;;;;8.60;2.07;;;11.60;99.90;;;;;;5094331;28;20878;-71
2021/03/27 13:32:15;;;;;;;6.57;1.77;;;11.50;99.90;;;;;;5094207;28;20441;-71
2021/03/27 13:35:16;;;;;;;4.10;1.47;;;11.90;99.90;;;;;;5094215;28;20445;-71
2021/03/27 13:37:50;;;;;;;4.50;1.70;;;11.60;99.90;;;;;;5094296;28;20488;-71
2021/03/27 13:40:27;;;;;;;3.63;1.80;;;11.40;99.90;;;;;;5094554;28;20933;-71
2021/03/27 13:43:17;;;;;;;9.67;1.60;;;11.40;99.90;;;;;;5094289;28;20923;-71
2021/03/27 13:46:02;;;;;;;5.77;2.23;;;11.10;99.90;;;;;;5094303;28;20784;-71
2021/03/27 13:48:28;;;;;;;5.40;1.40;;;11.00;99.90;;;;;;5094287;28;20781;-71
2021/03/27 13:51:04;;;;;;;3.93;1.10;;;11.10;99.90;;;;;;5094120;28;20401;-71
2021/03/27 13:54:02;;;;;;;3.60;1.30;;;11.90;99.90;;;;;;5093997;28;20286;-71
2021/03/27 13:56:37;;;;;;;4.37;1.40;;;12.80;99.90;;;;;;5094480;28;20374;-71
2021/03/27 13:59:30;;;;;;;5.70;1.57;;;13.00;99.90;;;;;;5094251;28;20476;-71
2021/03/27 14:02:33;;;;;;;5.37;1.10;;;13.20;99.90;;;;;;5094023;28;20382;-71
2021/03/27 14:05:28;;;;;;;3.37;1.27;;;13.20;99.90;;;;;;5093491;28;20408;-71
2021/03/27 14:07:58;;;;;;;2.47;1.40;;;13.30;99.90;;;;;;5093562;28;20467;-71
2021/03/27 14:10:32;;;;;;;2.70;1.10;;;13.30;99.90;;;;;;5093755;28;20496;-72
2021/03/27 14:13:33;;;;;;;2.33;1.00;;;13.40;99.90;;;;;;5093720;28;20452;-72
2021/03/27 14:16:24;;;;;;;4.20;1.40;;;13.00;99.90;;;;;;5011003;28;20459;-71
2021/03/27 14:19:19;;;;;;;2.50;1.23;;;13.10;99.90;;;;;;5091174;28;20412;-72
2021/03/27 14:22:09;;;;;;;6.50;1.47;;;13.50;99.90;;;;;;5093919;28;20836;-72
2021/03/27 14:24:59;;;;;;;3.77;1.27;;;14.50;99.90;;;;;;5093456;28;20742;-72
2021/03/27 14:27:37;;;;;;;3.37;1.23;;;14.70;99.90;;;;;;5093389;28;20455;-72
2021/03/27 14:30:06;;;;;;;4.40;1.33;;;14.20;99.90;;;;;;5093704;28;20456;-72
2021/03/27 14:32:38;;;;;;;1.70;1.10;;;14.90;99.90;;;;;;5093813;28;20430;-71
2021/03/27 14:35:31;;;;;;;4.90;1.27;;;14.20;99.90;;;;;;5093358;28;20398;-72